Time;durP1;ratioP1;P1;durP2;ratioP2;P2;SDS_P1;SDS_P2;PMS_P1;PMS_P2;Temp;Humidity;BMP_temperature;BMP_pressure;BME280_temperature;BME280_humidity;BME280_pressure;Samples;Min_cycle;Max_cycle;Signal;HPM_P1;HPM_P2
2022/12/19 00:00:22;;;;;;;2.85;2.10;;;-0.90;99.90;;;;;;5031199;28;20851;-68
2022/12/19 00:02:48;;;;;;;3.60;3.33;;;-1.00;99.90;;;;;;5031144;28;20210;-69
2022/12/19 00:05:15;;;;;;;5.63;2.38;;;-1.00;99.90;;;;;;5030898;28;20205;-69
2022/12/19 00:07:43;;;;;;;3.72;3.10;;;-1.10;99.90;;;;;;5045496;28;20860;-68
2022/12/19 00:10:10;;;;;;;3.47;2.67;;;-1.00;99.90;;;;;;5048810;28;20227;-69
2022/12/19 00:12:37;;;;;;;3.58;3.28;;;-1.00;99.90;;;;;;5050429;28;20593;-68
2022/12/19 00:15:04;;;;;;;6.18;4.45;;;-1.10;99.90;;;;;;5049940;28;20677;-69
2022/12/19 00:17:31;;;;;;;4.18;3.83;;;-1.10;99.90;;;;;;5050013;28;20271;-68
2022/12/19 00:19:58;;;;;;;3.90;3.42;;;-1.10;99.90;;;;;;5028105;28;20695;-69
2022/12/19 00:22:25;;;;;;;11.52;4.28;;;-1.10;99.90;;;;;;5030560;28;20203;-69
2022/12/19 00:24:53;;;;;;;4.47;4.07;;;-1.10;99.90;;;;;;5030141;28;20692;-70
2022/12/19 00:27:20;;;;;;;2.35;2.25;;;-1.00;99.90;;;;;;5039449;28;20222;-69
2022/12/19 00:29:47;;;;;;;15.10;5.28;;;-1.00;99.90;;;;;;5033542;28;20220;-69
2022/12/19 00:32:14;;;;;;;6.63;4.53;;;-1.00;99.90;;;;;;5030214;28;20200;-69
2022/12/19 00:34:40;;;;;;;2.92;2.65;;;-1.00;99.90;;;;;;5042287;28;20200;-67
2022/12/19 00:37:07;;;;;;;6.18;3.60;;;-0.90;99.90;;;;;;5049331;28;20213;-69
2022/12/19 00:39:34;;;;;;;4.60;2.35;;;-0.90;99.90;;;;;;5044588;28;20196;-69
2022/12/19 00:42:02;;;;;;;7.43;2.90;;;-0.90;99.90;;;;;;5046218;28;20196;-68
2022/12/19 00:44:29;;;;;;;7.75;5.65;;;-0.90;99.90;;;;;;5009783;28;20209;-69
2022/12/19 00:46:55;;;;;;;4.57;3.25;;;-0.80;99.90;;;;;;5046960;28;20211;-67
2022/12/19 00:49:22;;;;;;;3.65;3.45;;;-0.70;99.90;;;;;;5035172;28;20207;-69
2022/12/19 00:51:49;;;;;;;4.63;2.78;;;-0.60;99.90;;;;;;5043410;28;20223;-70
2022/12/19 00:54:16;;;;;;;2.72;2.53;;;-0.70;99.90;;;;;;5048449;28;20203;-69
2022/12/19 00:56:42;;;;;;;2.55;2.45;;;-0.70;99.90;;;;;;5041148;28;20730;-67
2022/12/19 00:59:11;;;;;;;4.85;3.90;;;-0.80;99.90;;;;;;5041533;28;20668;-68
2022/12/19 01:01:39;;;;;;;2.78;2.58;;;-0.70;99.90;;;;;;5040054;28;20223;-69
2022/12/19 01:04:08;;;;;;;5.40;4.65;;;-0.60;99.90;;;;;;5032827;28;20208;-68
2022/12/19 01:06:35;;;;;;;3.33;2.67;;;-0.60;99.90;;;;;;5048510;28;20203;-69
2022/12/19 01:09:02;;;;;;;5.05;4.65;;;-0.50;99.90;;;;;;5045976;28;20302;-68
2022/12/19 01:14:12;;;;;;;6.05;5.45;;;-0.60;99.90;;;;;;5028324;28;20215;-67
2022/12/19 01:16:38;;;;;;;3.58;3.38;;;-0.70;99.90;;;;;;5029962;28;20224;-69
2022/12/19 01:19:06;;;;;;;3.75;3.55;;;-0.60;99.90;;;;;;5031721;28;20196;-68
2022/12/19 01:21:36;;;;;;;4.70;4.30;;;-0.50;99.90;;;;;;5010854;28;20197;-69
2022/12/19 01:24:03;;;;;;;4.53;3.25;;;-0.60;99.90;;;;;;5048691;28;20561;-68
2022/12/19 01:26:30;;;;;;;2.55;1.80;;;-0.60;99.90;;;;;;5045260;28;20206;-69
2022/12/19 01:28:57;;;;;;;3.00;2.90;;;-0.70;99.90;;;;;;5028395;28;20199;-68
2022/12/19 01:31:25;;;;;;;4.47;4.10;;;-0.70;99.90;;;;;;5035534;28;20229;-69
2022/12/19 01:33:52;;;;;;;5.82;3.05;;;-0.70;99.90;;;;;;5031179;28;20207;-69
2022/12/19 01:36:19;;;;;;;6.95;4.50;;;-0.70;99.90;;;;;;5023003;28;20210;-69
2022/12/19 01:38:45;;;;;;;6.13;5.57;;;-0.70;99.90;;;;;;5048027;28;20210;-69
2022/12/19 01:41:12;;;;;;;6.53;4.25;;;-0.60;99.90;;;;;;5045416;28;20510;-69
2022/12/19 01:43:55;;;;;;;12.70;4.53;;;-0.60;99.90;;;;;;5028759;28;20210;-70
2022/12/19 01:46:30;;;;;;;6.20;2.63;;;-0.70;99.90;;;;;;5021996;28;20207;-67
2022/12/19 01:48:57;;;;;;;8.98;3.60;;;-0.70;99.90;;;;;;5027553;28;20203;-69
2022/12/19 01:51:28;;;;;;;4.68;4.28;;;-0.70;99.90;;;;;;5046691;28;20591;-69
2022/12/19 01:53:59;;;;;;;4.75;2.58;;;-0.60;99.90;;;;;;5046828;28;20214;-69
2022/12/19 01:56:31;;;;;;;5.38;4.85;;;-0.60;99.90;;;;;;5030485;28;20238;-69
2022/12/19 01:59:03;;;;;;;6.38;4.28;;;-0.50;99.90;;;;;;5036164;28;20204;-69
2022/12/19 02:01:31;;;;;;;5.65;3.20;;;-0.60;99.90;;;;;;5044046;28;20281;-69
2022/12/19 02:04:01;;;;;;;2.70;2.50;;;-0.50;99.90;;;;;;5026408;28;20201;-69
2022/12/19 02:06:28;;;;;;;3.50;2.95;;;-0.50;99.90;;;;;;5041832;28;20214;-69
2022/12/19 02:08:57;;;;;;;6.15;4.55;;;-0.60;99.90;;;;;;5037839;28;20615;-69
2022/12/19 02:11:25;;;;;;;5.90;5.50;;;-0.50;99.90;;;;;;5026993;28;20601;-69
2022/12/19 02:13:53;;;;;;;12.20;4.50;;;-0.50;99.90;;;;;;5026969;28;20210;-69
2022/12/19 02:16:29;;;;;;;3.85;3.38;;;-0.50;99.90;;;;;;5027122;28;20232;-69
2022/12/19 02:19:14;;;;;;;2.17;2.08;;;-0.60;99.90;;;;;;5028006;28;20667;-69
2022/12/19 02:21:51;;;;;;;7.80;5.05;;;-0.70;99.90;;;;;;5032596;28;20189;-69
2022/12/19 02:24:51;;;;;;;4.13;3.92;;;-0.70;99.90;;;;;;5042389;28;20824;-69
2022/12/19 02:27:45;;;;;;;2.78;2.53;;;-0.60;99.90;;;;;;5032173;28;20754;-69
2022/12/19 02:30:15;;;;;;;4.15;3.88;;;-0.70;99.90;;;;;;4996731;28;20237;-69
2022/12/19 02:33:03;;;;;;;6.10;5.68;;;-0.60;99.90;;;;;;5013882;28;20199;-68
2022/12/19 02:35:37;;;;;;;4.20;3.30;;;-0.60;99.90;;;;;;5026541;28;20290;-69
2022/12/19 02:38:14;;;;;;;6.32;4.88;;;-0.60;99.90;;;;;;5009836;28;20208;-69
2022/12/19 02:40:48;;;;;;;3.70;3.50;;;-0.60;99.90;;;;;;5042427;28;20209;-70
2022/12/19 02:43:18;;;;;;;5.22;4.82;;;-0.70;99.90;;;;;;5033821;28;20197;-68
2022/12/19 02:45:47;;;;;;;4.05;3.65;;;-0.60;99.90;;;;;;4991285;28;1067311;-68
2022/12/19 02:48:17;;;;;;;5.43;5.03;;;-0.50;99.90;;;;;;5015016;28;20204;-70
2022/12/19 02:50:46;;;;;;;7.82;4.03;;;-0.60;99.90;;;;;;5028761;28;20334;-70
2022/12/19 02:53:15;;;;;;;8.98;5.70;;;-0.50;99.90;;;;;;5046911;28;20202;-69
2022/12/19 02:55:50;;;;;;;6.03;5.38;;;-0.60;99.90;;;;;;5047249;28;20843;-68
2022/12/19 02:58:50;;;;;;;1.80;1.75;;;-0.60;99.90;;;;;;5016147;28;20203;-69
2022/12/19 03:01:30;;;;;;;11.07;4.75;;;-0.60;99.90;;;;;;5030308;28;20313;-66
2022/12/19 03:04:10;;;;;;;4.30;4.07;;;-0.60;99.90;;;;;;5026568;28;20681;-68
2022/12/19 03:06:42;;;;;;;2.50;2.25;;;-0.60;99.90;;;;;;5033138;28;20700;-68
2022/12/19 03:09:15;;;;;;;8.18;3.90;;;-0.50;99.90;;;;;;5046326;28;20208;-68
2022/12/19 03:11:43;;;;;;;3.63;3.42;;;-0.50;99.90;;;;;;5032533;28;20289;-67
2022/12/19 03:14:15;;;;;;;7.65;3.47;;;-0.30;99.90;;;;;;5026782;28;20219;-68
2022/12/19 03:16:43;;;;;;;3.78;3.30;;;-0.20;99.90;;;;;;5029134;28;20199;-68
2022/12/19 03:19:14;;;;;;;5.20;4.78;;;-0.20;99.90;;;;;;5028585;28;20226;-68
2022/12/19 03:21:44;;;;;;;3.22;3.03;;;-0.20;99.90;;;;;;5038940;28;20200;-68
2022/12/19 03:24:13;;;;;;;5.70;3.42;;;-0.20;99.90;;;;;;5026724;28;20195;-68
2022/12/19 03:26:46;;;;;;;9.48;3.60;;;-0.20;99.90;;;;;;5033005;28;20192;-69
2022/12/19 03:29:17;;;;;;;5.05;3.42;;;-0.10;99.90;;;;;;5032544;28;20586;-68
2022/12/19 03:31:46;;;;;;;4.55;3.75;;;-0.10;99.90;;;;;;5035729;28;20251;-68
2022/12/19 03:34:19;;;;;;;2.17;2.08;;;-0.20;99.90;;;;;;5030830;28;20212;-68
2022/12/19 03:36:52;;;;;;;6.05;3.88;;;-0.10;99.90;;;;;;5038104;28;20190;-68
2022/12/19 03:39:21;;;;;;;4.22;2.95;;;-0.20;99.90;;;;;;5050257;28;20208;-67
2022/12/19 03:44:39;;;;;;;3.65;2.72;;;0.00;99.90;;;;;;5038860;28;20212;-69
2022/12/19 03:47:12;;;;;;;3.42;3.17;;;0.00;99.90;;;;;;5010226;28;20201;-68
2022/12/19 03:49:42;;;;;;;4.78;4.38;;;-0.10;99.90;;;;;;5028448;28;20633;-68
2022/12/19 03:52:18;;;;;;;6.90;4.38;;;0.00;99.90;;;;;;5045565;28;20235;-68
2022/12/19 03:54:51;;;;;;;4.55;3.85;;;0.00;99.90;;;;;;5049838;28;20693;-68
2022/12/19 03:57:25;;;;;;;3.00;2.30;;;0.10;99.90;;;;;;5036148;28;20254;-67
2022/12/19 03:59:59;;;;;;;11.43;3.08;;;0.10;99.90;;;;;;5049170;28;20199;-68
2022/12/19 04:02:28;;;;;;;4.07;2.35;;;0.10;99.90;;;;;;5035377;28;20280;-68
2022/12/19 04:04:58;;;;;;;4.07;3.17;;;0.10;99.90;;;;;;5029996;28;20254;-68
2022/12/19 04:07:26;;;;;;;3.03;2.75;;;0.10;99.90;;;;;;5042194;28;20192;-68
2022/12/19 04:09:55;;;;;;;3.72;2.72;;;0.20;99.90;;;;;;5048772;28;20260;-69
2022/12/19 04:12:26;;;;;;;1.88;1.77;;;0.30;99.90;;;;;;5031632;28;20278;-68
2022/12/19 04:14:53;;;;;;;5.05;4.72;;;0.30;99.90;;;;;;5030124;28;20209;-68
2022/12/19 04:17:29;;;;;;;5.63;4.50;;;0.30;99.90;;;;;;5031261;28;20207;-68
2022/12/19 04:20:02;;;;;;;3.13;2.92;;;0.30;99.90;;;;;;5027635;28;20200;-67
2022/12/19 04:22:35;;;;;;;4.47;4.28;;;0.30;99.90;;;;;;5029413;28;20242;-67
2022/12/19 04:25:04;;;;;;;3.42;3.13;;;0.30;99.90;;;;;;5029811;28;20219;-68
2022/12/19 04:27:34;;;;;;;3.42;3.22;;;0.40;99.90;;;;;;5031138;28;20208;-68
2022/12/19 04:30:02;;;;;;;2.75;2.55;;;0.30;99.90;;;;;;5029325;28;20355;-66
2022/12/19 04:32:32;;;;;;;2.50;2.40;;;0.40;99.90;;;;;;5043483;28;20289;-69
2022/12/19 04:35:00;;;;;;;5.32;4.57;;;0.30;99.90;;;;;;5048615;28;20563;-69
2022/12/19 04:37:27;;;;;;;6.97;4.20;;;0.30;99.90;;;;;;5049801;28;20196;-68
2022/12/19 04:39:54;;;;;;;4.78;4.35;;;0.30;99.90;;;;;;5048909;28;20207;-68
2022/12/19 04:42:21;;;;;;;3.17;2.42;;;0.30;99.90;;;;;;5035309;28;20205;-68
2022/12/19 04:44:48;;;;;;;8.55;4.22;;;0.60;99.90;;;;;;5045563;28;20223;-67
2022/12/19 04:47:14;;;;;;;3.97;3.63;;;0.50;99.90;;;;;;5029207;28;20200;-68
2022/12/19 04:49:41;;;;;;;9.48;2.45;;;0.50;99.90;;;;;;5030242;28;20209;-68
2022/12/19 04:52:09;;;;;;;5.63;3.67;;;0.50;99.90;;;;;;5034971;28;20228;-67
2022/12/19 04:54:36;;;;;;;4.40;4.15;;;0.50;99.90;;;;;;5029504;28;20312;-69
2022/12/19 04:57:03;;;;;;;4.32;2.97;;;0.60;99.90;;;;;;5041249;28;20650;-68
2022/12/19 04:59:30;;;;;;;2.28;2.17;;;0.60;99.90;;;;;;5034092;28;20200;-68
2022/12/19 05:01:58;;;;;;;3.70;3.10;;;0.70;99.90;;;;;;5035881;28;20225;-68
2022/12/19 05:04:25;;;;;;;3.17;2.22;;;0.70;99.90;;;;;;5046619;28;20200;-67
2022/12/19 05:06:51;;;;;;;3.30;2.63;;;0.70;99.90;;;;;;5039345;28;20204;-67
2022/12/19 05:09:20;;;;;;;4.28;3.88;;;0.70;99.90;;;;;;5029330;28;20235;-67
2022/12/19 05:11:46;;;;;;;3.75;3.55;;;0.80;99.90;;;;;;5041516;28;20719;-68
2022/12/19 05:14:14;;;;;;;4.70;3.45;;;1.60;99.90;;;;;;5048268;28;20686;-66
2022/12/19 05:16:41;;;;;;;10.45;3.58;;;0.90;99.90;;;;;;5048619;28;20196;-68
2022/12/19 05:19:08;;;;;;;7.88;5.30;;;1.00;99.90;;;;;;5038953;28;20196;-68
2022/12/19 05:21:35;;;;;;;2.40;2.20;;;1.00;99.90;;;;;;5028562;28;20189;-68
2022/12/19 05:24:01;;;;;;;10.30;3.17;;;0.90;99.90;;;;;;5041340;28;20196;-68
2022/12/19 05:26:29;;;;;;;4.32;3.92;;;0.80;99.90;;;;;;5046713;28;20251;-68
2022/12/19 05:28:56;;;;;;;5.55;4.40;;;0.70;99.90;;;;;;5036970;28;20203;-68
2022/12/19 05:31:23;;;;;;;2.17;2.10;;;0.80;99.90;;;;;;5034868;28;20227;-69
2022/12/19 05:33:50;;;;;;;2.47;2.13;;;0.80;99.90;;;;;;5048147;28;20207;-68
2022/12/19 05:36:18;;;;;;;3.55;3.25;;;0.80;99.90;;;;;;5043336;28;20189;-69
2022/12/19 05:38:45;;;;;;;1.90;1.80;;;0.80;99.90;;;;;;5029736;28;20200;-67
2022/12/19 05:41:15;;;;;;;7.82;7.10;;;0.90;99.90;;;;;;5029065;28;20197;-68
2022/12/19 05:43:43;;;;;;;7.35;4.65;;;0.90;99.90;;;;;;5038388;28;20198;-68
2022/12/19 05:46:10;;;;;;;2.30;2.20;;;0.80;99.90;;;;;;5043523;28;20206;-68
2022/12/19 05:48:37;;;;;;;4.30;2.85;;;0.80;99.90;;;;;;5028403;28;20197;-69
2022/12/19 05:51:05;;;;;;;9.13;3.88;;;0.80;99.90;;;;;;5033291;28;20207;-68
2022/12/19 05:53:31;;;;;;;4.22;2.85;;;0.80;99.90;;;;;;5030887;28;20193;-68
2022/12/19 05:56:06;;;;;;;2.65;2.55;;;0.80;99.90;;;;;;5047026;28;20717;-68
2022/12/19 05:58:33;;;;;;;5.82;5.30;;;0.90;99.90;;;;;;5042406;28;20202;-68
2022/12/19 06:01:06;;;;;;;2.30;2.20;;;1.00;99.90;;;;;;5047824;28;20218;-69
2022/12/19 06:03:33;;;;;;;3.35;2.47;;;1.00;99.90;;;;;;5029547;28;20267;-68
2022/12/19 06:06:02;;;;;;;6.32;4.43;;;0.90;99.90;;;;;;5045797;28;20204;-69
2022/12/19 06:08:30;;;;;;;7.82;2.53;;;1.00;99.90;;;;;;5045344;28;20307;-68
2022/12/19 06:10:59;;;;;;;3.50;3.17;;;1.00;99.90;;;;;;5038309;28;20220;-69
2022/12/19 06:13:27;;;;;;;4.40;4.10;;;1.10;99.90;;;;;;5032919;28;20925;-68
2022/12/19 06:15:57;;;;;;;15.05;5.10;;;1.00;99.90;;;;;;5036979;28;20199;-68
2022/12/19 06:18:26;;;;;;;9.20;3.95;;;1.10;99.90;;;;;;5042698;28;20192;-69
2022/12/19 06:20:57;;;;;;;5.75;3.95;;;1.00;99.90;;;;;;5034979;28;20253;-69
2022/12/19 06:23:24;;;;;;;8.60;4.72;;;1.00;99.90;;;;;;5037327;28;20250;-70
2022/12/19 06:25:51;;;;;;;6.20;3.63;;;1.10;99.90;;;;;;5046013;28;20204;-68
2022/12/19 06:28:17;;;;;;;2.97;2.22;;;1.10;99.90;;;;;;5041384;28;20211;-69
2022/12/19 06:30:45;;;;;;;3.50;3.15;;;1.10;99.90;;;;;;5037928;28;20215;-69
2022/12/19 06:33:12;;;;;;;11.05;3.05;;;1.20;99.90;;;;;;5036580;28;20226;-69
2022/12/19 06:35:40;;;;;;;2.90;2.53;;;1.30;99.90;;;;;;5035992;28;20188;-70
2022/12/19 06:38:07;;;;;;;4.03;3.72;;;1.30;99.90;;;;;;5034825;28;20200;-69
2022/12/19 06:43:18;;;;;;;7.40;1.40;;;1.30;99.90;;;;;;5027969;28;20204;-67
2022/12/19 06:45:45;;;;;;;4.18;2.80;;;1.30;99.90;;;;;;5027792;28;20205;-68
2022/12/19 06:48:11;;;;;;;4.55;2.67;;;1.30;99.90;;;;;;5026379;28;20200;-69
2022/12/19 06:50:39;;;;;;;3.45;3.15;;;1.30;99.90;;;;;;5027922;28;20205;-68
2022/12/19 06:53:06;;;;;;;3.92;3.17;;;1.30;99.90;;;;;;5035125;28;20234;-68
2022/12/19 06:55:36;;;;;;;5.03;4.65;;;1.30;99.90;;;;;;5046612;28;20206;-67
2022/12/19 06:58:02;;;;;;;3.80;3.60;;;1.30;99.90;;;;;;5043170;28;20294;-68
2022/12/19 07:00:29;;;;;;;12.77;2.25;;;1.40;99.90;;;;;;5027645;28;20209;-69
2022/12/19 07:02:59;;;;;;;4.00;3.42;;;1.40;99.90;;;;;;5031944;28;20681;-69
2022/12/19 07:05:26;;;;;;;2.45;2.17;;;1.40;99.90;;;;;;5047252;28;20642;-68
2022/12/19 07:07:54;;;;;;;5.20;3.53;;;1.50;99.90;;;;;;5028125;28;20204;-68
2022/12/19 07:10:21;;;;;;;4.57;3.35;;;1.40;99.90;;;;;;5028382;28;20219;-69
2022/12/19 07:12:47;;;;;;;4.30;3.67;;;1.40;99.90;;;;;;5046367;28;20234;-69
2022/12/19 07:15:14;;;;;;;4.65;4.28;;;1.40;99.90;;;;;;5046887;28;20204;-69
2022/12/19 07:17:41;;;;;;;2.63;2.42;;;1.40;99.90;;;;;;5045791;28;20204;-68
2022/12/19 07:20:09;;;;;;;4.43;2.60;;;1.40;99.90;;;;;;5028028;28;20198;-68
2022/12/19 07:22:36;;;;;;;7.28;4.40;;;1.40;99.90;;;;;;5040251;28;20227;-69
2022/12/19 07:25:06;;;;;;;10.20;5.47;;;1.50;99.90;;;;;;5027397;28;20211;-68
2022/12/19 07:27:33;;;;;;;3.85;3.55;;;1.70;99.90;;;;;;5028591;28;20418;-69
2022/12/19 07:30:00;;;;;;;4.30;3.28;;;1.60;99.90;;;;;;5043493;28;20262;-69
2022/12/19 07:32:27;;;;;;;11.70;6.40;;;1.70;99.90;;;;;;5045449;28;20678;-68
2022/12/19 07:34:54;;;;;;;6.55;2.40;;;1.70;99.90;;;;;;5046736;28;20207;-69
2022/12/19 07:37:21;;;;;;;4.75;3.92;;;1.70;99.90;;;;;;5032570;28;20204;-69
2022/12/19 07:39:48;;;;;;;3.13;2.83;;;1.60;99.90;;;;;;5027332;28;20200;-68
2022/12/19 07:42:16;;;;;;;6.80;5.82;;;1.70;99.90;;;;;;5034240;28;20207;-69
2022/12/19 07:44:43;;;;;;;2.10;1.95;;;1.70;99.90;;;;;;5027490;28;20774;-69
2022/12/19 07:47:09;;;;;;;3.42;2.95;;;1.70;99.90;;;;;;5046649;28;20560;-69
2022/12/19 07:49:36;;;;;;;3.50;2.55;;;1.70;99.90;;;;;;5045244;28;20279;-69
2022/12/19 07:52:03;;;;;;;3.40;3.17;;;1.70;99.90;;;;;;5029039;28;20228;-69
2022/12/19 07:54:30;;;;;;;6.03;5.47;;;1.80;99.90;;;;;;5027361;28;20205;-69
2022/12/19 07:56:57;;;;;;;6.03;4.32;;;1.70;99.90;;;;;;5012395;28;20201;-69
2022/12/19 07:59:25;;;;;;;1.25;1.17;;;1.80;99.90;;;;;;5013635;28;20197;-69
2022/12/19 08:01:52;;;;;;;6.30;3.75;;;1.80;99.90;;;;;;5023697;28;20208;-69
2022/12/19 08:04:19;;;;;;;1.35;1.25;;;1.80;99.90;;;;;;5034606;28;20286;-69
2022/12/19 08:06:46;;;;;;;4.53;3.25;;;1.80;99.90;;;;;;5047019;28;20204;-68
2022/12/19 08:09:13;;;;;;;2.75;2.30;;;1.90;99.90;;;;;;5037190;28;20212;-68
2022/12/19 08:11:40;;;;;;;2.22;2.10;;;1.90;99.90;;;;;;5035327;28;20204;-69
2022/12/19 08:14:06;;;;;;;4.30;2.92;;;2.00;99.90;;;;;;5021777;28;20676;-69
2022/12/19 08:16:36;;;;;;;2.85;2.45;;;2.00;99.90;;;;;;5027447;28;20212;-69
2022/12/19 08:19:03;;;;;;;6.75;4.22;;;2.00;99.90;;;;;;5029159;28;20203;-69
2022/12/19 08:21:30;;;;;;;4.05;3.65;;;2.00;99.90;;;;;;5041078;28;20204;-69
2022/12/19 08:23:57;;;;;;;7.25;3.50;;;2.00;99.90;;;;;;5033988;28;20208;-69
2022/12/19 08:26:24;;;;;;;5.10;3.33;;;2.00;99.90;;;;;;5031457;28;20197;-69
2022/12/19 08:28:52;;;;;;;7.30;6.72;;;2.00;99.90;;;;;;5028723;28;20215;-70
2022/12/19 08:31:19;;;;;;;4.63;4.20;;;2.00;99.90;;;;;;5033055;28;20201;-69
2022/12/19 08:33:48;;;;;;;6.03;3.95;;;2.00;99.90;;;;;;5029995;28;20528;-69
2022/12/19 08:36:17;;;;;;;4.63;4.18;;;2.10;99.90;;;;;;5037594;28;20658;-69
2022/12/19 08:38:45;;;;;;;2.55;1.95;;;2.20;99.90;;;;;;5048967;28;20204;-68
2022/12/19 08:41:12;;;;;;;3.05;2.38;;;2.40;99.90;;;;;;5049607;28;20208;-69
2022/12/19 08:43:38;;;;;;;1.63;1.52;;;2.40;99.90;;;;;;5041138;28;20566;-69
2022/12/19 08:46:06;;;;;;;3.25;2.30;;;2.40;99.90;;;;;;5032838;28;20219;-68
2022/12/19 08:48:34;;;;;;;5.22;3.63;;;2.40;99.90;;;;;;5025348;28;20610;-69
2022/12/19 08:51:05;;;;;;;2.22;2.10;;;1.80;99.90;;;;;;5036106;28;20212;-71
2022/12/19 08:53:34;;;;;;;9.30;4.07;;;2.40;99.90;;;;;;5049979;28;20230;-69
2022/12/19 08:56:03;;;;;;;4.22;2.75;;;2.50;99.90;;;;;;5043929;28;20208;-68
2022/12/19 08:58:30;;;;;;;2.03;1.92;;;2.50;99.90;;;;;;5029931;28;20203;-68
2022/12/19 09:00:59;;;;;;;2.90;2.72;;;2.60;99.90;;;;;;5030399;28;20669;-69
2022/12/19 09:03:26;;;;;;;2.70;2.33;;;2.60;99.90;;;;;;5029753;28;20271;-69
2022/12/19 09:05:56;;;;;;;4.88;3.38;;;2.60;99.90;;;;;;5029367;28;20260;-70
2022/12/19 09:08:25;;;;;;;3.17;2.88;;;2.60;99.90;;;;;;5049522;28;20252;-69
2022/12/19 09:10:58;;;;;;;6.55;5.05;;;2.70;99.90;;;;;;5042141;28;20244;-69
2022/12/19 09:13:25;;;;;;;14.93;3.40;;;2.70;99.90;;;;;;5015534;28;20706;-69
2022/12/19 09:15:59;;;;;;;2.97;1.70;;;2.80;99.90;;;;;;5025974;28;20241;-68
2022/12/19 09:18:26;;;;;;;1.50;1.40;;;2.80;99.90;;;;;;5024508;28;20276;-69
2022/12/19 09:20:54;;;;;;;3.55;2.97;;;2.90;99.90;;;;;;5032453;28;20666;-69
2022/12/19 09:23:21;;;;;;;3.08;2.88;;;3.00;99.90;;;;;;5034178;28;20208;-69
2022/12/19 09:25:49;;;;;;;3.05;2.45;;;3.00;99.90;;;;;;5035687;28;20670;-69
2022/12/19 09:28:16;;;;;;;4.93;2.75;;;3.00;99.90;;;;;;5024970;28;20476;-68
2022/12/19 09:30:42;;;;;;;2.35;2.15;;;3.00;99.90;;;;;;5039355;28;20204;-69
2022/12/19 09:33:09;;;;;;;3.10;2.80;;;3.00;99.90;;;;;;5049077;28;20251;-69
2022/12/19 09:35:36;;;;;;;9.25;3.78;;;3.10;99.90;;;;;;5048515;28;20235;-70
2022/12/19 09:38:03;;;;;;;4.30;2.47;;;3.20;99.90;;;;;;5029902;28;20287;-69
2022/12/19 09:40:45;;;;;;;2.85;2.65;;;3.20;99.90;;;;;;5033528;28;20197;-69
2022/12/19 09:43:26;;;;;;;2.05;1.95;;;3.20;99.90;;;;;;5036418;28;20236;-69
2022/12/19 09:46:00;;;;;;;5.10;3.88;;;3.20;99.90;;;;;;5038444;28;20214;-70
2022/12/19 09:48:27;;;;;;;4.85;3.60;;;3.40;99.90;;;;;;5026326;28;20200;-69
2022/12/19 09:50:59;;;;;;;2.45;2.05;;;3.30;99.90;;;;;;5034130;28;20652;-68
2022/12/19 09:53:32;;;;;;;10.82;4.57;;;3.50;99.90;;;;;;5048629;28;20749;-68
2022/12/19 09:56:00;;;;;;;2.90;2.63;;;3.50;99.90;;;;;;5046428;28;20218;-68
2022/12/19 09:58:34;;;;;;;3.38;2.47;;;3.60;99.90;;;;;;5034449;28;20200;-69
2022/12/19 10:01:06;;;;;;;2.72;2.50;;;3.70;99.90;;;;;;5039595;28;20587;-69
2022/12/19 10:03:38;;;;;;;3.88;3.40;;;3.80;99.90;;;;;;5028354;28;20196;-69
2022/12/19 10:06:13;;;;;;;13.60;4.40;;;3.80;99.90;;;;;;5030078;28;20658;-70
2022/12/19 10:08:42;;;;;;;6.65;4.03;;;3.80;99.90;;;;;;5036467;28;20299;-69
2022/12/19 10:11:17;;;;;;;5.47;1.95;;;3.90;99.90;;;;;;5034606;28;20682;-69
2022/12/19 10:14:01;;;;;;;11.73;2.78;;;4.00;99.90;;;;;;5048381;28;20235;-69
2022/12/19 10:16:36;;;;;;;3.78;3.53;;;4.10;99.90;;;;;;5030503;28;20212;-70
2022/12/19 10:19:05;;;;;;;4.80;2.85;;;4.30;99.90;;;;;;5020014;28;20284;-69
2022/12/19 10:21:39;;;;;;;1.80;1.67;;;4.30;99.90;;;;;;5033449;28;20640;-69
2022/12/19 10:24:50;;;;;;;4.35;4.05;;;4.20;99.90;;;;;;5028735;28;20284;-69
2022/12/19 10:27:27;;;;;;;2.70;2.40;;;4.20;99.90;;;;;;5035370;28;20203;-69
2022/12/19 10:30:10;;;;;;;5.90;4.28;;;4.20;99.90;;;;;;5033637;28;20237;-69
2022/12/19 10:32:42;;;;;;;3.95;2.92;;;4.10;99.90;;;;;;5031181;28;20237;-69
2022/12/19 10:35:14;;;;;;;4.93;3.97;;;4.10;99.90;;;;;;5027393;28;20670;-70
2022/12/19 10:37:47;;;;;;;5.80;3.47;;;4.10;99.90;;;;;;5044191;28;20195;-70
2022/12/19 10:40:19;;;;;;;2.90;2.70;;;4.30;99.90;;;;;;5040227;28;20199;-69
2022/12/19 10:42:51;;;;;;;3.58;3.10;;;4.30;99.90;;;;;;5015177;28;20197;-70
2022/12/19 10:45:21;;;;;;;4.22;3.85;;;3.90;99.90;;;;;;5031810;28;20296;-69
2022/12/19 10:47:51;;;;;;;4.60;4.15;;;4.30;99.90;;;;;;5028354;28;20275;-69
2022/12/19 10:50:22;;;;;;;2.13;2.03;;;4.30;99.90;;;;;;5027535;28;20284;-69
2022/12/19 10:52:53;;;;;;;4.00;2.88;;;4.30;99.90;;;;;;5013837;28;20658;-70
2022/12/19 10:55:33;;;;;;;3.67;3.38;;;4.40;99.90;;;;;;5027949;28;20220;-69
2022/12/19 10:58:08;;;;;;;3.30;3.00;;;4.40;99.90;;;;;;5028472;28;20235;-70
2022/12/19 11:00:37;;;;;;;2.38;2.28;;;4.30;99.90;;;;;;5040608;28;20195;-68
2022/12/19 11:03:12;;;;;;;2.08;1.92;;;4.30;99.90;;;;;;5030729;28;20292;-69
2022/12/19 11:05:43;;;;;;;7.50;3.15;;;4.40;99.90;;;;;;5029431;28;20327;-69
2022/12/19 11:08:17;;;;;;;7.63;3.03;;;4.40;99.90;;;;;;5032257;28;20203;-69
2022/12/19 11:10:47;;;;;;;5.95;3.75;;;4.40;99.90;;;;;;5031517;28;20207;-70
2022/12/19 11:13:22;;;;;;;3.10;2.80;;;4.40;99.90;;;;;;5047495;28;20735;-69
2022/12/19 11:15:52;;;;;;;2.35;1.65;;;4.40;99.90;;;;;;5047883;28;20302;-70
2022/12/19 11:18:18;;;;;;;3.40;2.60;;;4.40;99.90;;;;;;5031576;28;20190;-70
2022/12/19 11:20:55;;;;;;;3.47;2.92;;;4.50;99.90;;;;;;5039435;28;20189;-70
2022/12/19 11:23:24;;;;;;;7.00;1.85;;;4.50;99.90;;;;;;5026767;28;20210;-69
2022/12/19 11:25:56;;;;;;;2.95;1.70;;;4.60;99.90;;;;;;5027349;28;20632;-70
2022/12/19 11:28:26;;;;;;;3.20;2.85;;;4.60;99.90;;;;;;5027420;28;20196;-69
2022/12/19 11:31:06;;;;;;;2.20;2.00;;;4.60;99.90;;;;;;5026707;28;20200;-69
2022/12/19 11:33:33;;;;;;;4.95;2.65;;;4.60;99.90;;;;;;5026903;28;20220;-70
2022/12/19 11:36:02;;;;;;;1.90;1.70;;;4.60;99.90;;;;;;5027071;28;20540;-68
2022/12/19 11:38:43;;;;;;;2.20;2.10;;;4.70;99.90;;;;;;5025769;28;20792;-69
2022/12/19 11:41:14;;;;;;;2.20;2.08;;;4.70;99.90;;;;;;5026289;28;20196;-69
2022/12/19 11:43:49;;;;;;;5.00;4.60;;;4.70;99.90;;;;;;5013637;28;20197;-70
2022/12/19 11:46:34;;;;;;;5.60;2.63;;;4.70;99.90;;;;;;5033541;28;20202;-68
2022/12/19 11:49:05;;;;;;;7.63;4.18;;;4.70;99.90;;;;;;5046613;28;20203;-70
2022/12/19 11:51:39;;;;;;;4.20;2.65;;;4.80;99.90;;;;;;5046836;28;20207;-68
2022/12/19 11:54:13;;;;;;;5.38;2.90;;;4.90;99.90;;;;;;5048277;28;20570;-69
2022/12/19 11:56:40;;;;;;;3.97;3.03;;;5.00;99.90;;;;;;5032250;28;20192;-68
2022/12/19 11:59:15;;;;;;;2.85;2.65;;;4.90;99.90;;;;;;5038127;28;20654;-69
2022/12/19 12:01:57;;;;;;;2.90;2.60;;;5.00;99.90;;;;;;5046124;28;20207;-69
2022/12/19 12:04:45;;;;;;;5.18;3.40;;;5.20;99.90;;;;;;5010888;28;20212;-70
2022/12/19 12:07:12;;;;;;;5.05;3.88;;;5.20;99.90;;;;;;5015026;28;20892;-69
2022/12/19 12:09:45;;;;;;;2.55;2.35;;;5.30;99.90;;;;;;5011055;28;20219;-69
2022/12/19 12:12:22;;;;;;;5.47;5.00;;;5.30;99.90;;;;;;5019953;28;20215;-69
2022/12/19 12:15:13;;;;;;;7.22;2.20;;;5.30;99.90;;;;;;5035509;28;20230;-69
2022/12/19 12:17:50;;;;;;;1.75;1.65;;;5.40;99.90;;;;;;5032492;28;20188;-69
2022/12/19 12:20:34;;;;;;;1.30;1.17;;;5.30;99.90;;;;;;5030047;28;20202;-69
2022/12/19 12:23:24;;;;;;;2.30;2.10;;;5.30;99.90;;;;;;5035580;28;20202;-70
2022/12/19 12:26:02;;;;;;;7.72;5.13;;;5.40;99.90;;;;;;5029900;28;20292;-69
2022/12/19 12:28:56;;;;;;;4.38;2.90;;;5.40;99.90;;;;;;5030757;28;20267;-69
2022/12/19 12:31:46;;;;;;;2.72;1.77;;;5.40;99.90;;;;;;5033144;28;20211;-70
2022/12/19 12:34:34;;;;;;;3.17;2.70;;;5.40;99.90;;;;;;5029984;28;20808;-69
2022/12/19 12:37:12;;;;;;;3.30;2.55;;;5.40;99.90;;;;;;5031228;28;20189;-69
2022/12/19 12:39:50;;;;;;;4.38;3.95;;;5.40;99.90;;;;;;5030420;28;20203;-69
2022/12/19 12:42:33;;;;;;;2.97;1.95;;;5.40;99.90;;;;;;5013699;28;20203;-69
2022/12/19 12:45:02;;;;;;;2.83;2.22;;;5.20;99.90;;;;;;5030187;28;20586;-69
2022/12/19 12:47:29;;;;;;;6.40;2.97;;;5.30;99.90;;;;;;5021700;28;20379;-69
2022/12/19 12:50:00;;;;;;;1.75;1.65;;;5.40;99.90;;;;;;5050402;28;20200;-69
2022/12/19 12:52:33;;;;;;;3.70;2.67;;;5.50;99.90;;;;;;5038593;28;20193;-69
2022/12/19 12:55:01;;;;;;;3.30;2.25;;;5.60;99.90;;;;;;5043654;28;20712;-69
2022/12/19 12:57:37;;;;;;;2.80;2.60;;;5.70;99.90;;;;;;5017741;28;20689;-69
2022/12/19 13:00:21;;;;;;;4.20;2.00;;;5.70;99.90;;;;;;5033097;28;20287;-70
2022/12/19 13:02:52;;;;;;;4.47;2.15;;;5.60;99.90;;;;;;5025152;28;20204;-69
2022/12/19 13:05:49;;;;;;;5.68;2.90;;;5.60;99.90;;;;;;5048984;28;20204;-69
2022/12/19 13:08:35;;;;;;;4.68;1.58;;;5.70;99.90;;;;;;5048277;28;20688;-69
2022/12/19 13:11:05;;;;;;;3.13;2.08;;;5.70;99.90;;;;;;5029078;28;20668;-69
2022/12/19 13:13:52;;;;;;;2.85;2.22;;;5.70;99.90;;;;;;5030587;28;20251;-71
2022/12/19 13:16:52;;;;;;;3.10;2.35;;;5.60;99.90;;;;;;5049032;28;20330;-69
2022/12/19 13:19:22;;;;;;;5.45;2.70;;;5.70;99.90;;;;;;5027829;28;20207;-70